sensor_id;sensor_type;location;lat;lon;timestamp;P1;durP1;ratioP1;P2;durP2;ratioP2
64710;SDS011;51139;45.626;6.850;2023-11-21T00:00:46;4.53;;;2.05;;
64710;SDS011;51139;45.626;6.850;2023-11-21T00:03:12;3.10;;;1.85;;
64710;SDS011;51139;45.626;6.850;2023-11-21T00:05:40;4.60;;;2.20;;
64710;SDS011;51139;45.626;6.850;2023-11-21T00:08:06;2.97;;;1.70;;
64710;SDS011;51139;45.626;6.850;2023-11-21T00:10:32;2.10;;;1.40;;
64710;SDS011;51139;45.626;6.850;2023-11-21T00:12:57;1.95;;;1.25;;
64710;SDS011;51139;45.626;6.850;2023-11-21T00:15:23;4.28;;;2.53;;
64710;SDS011;51139;45.626;6.850;2023-11-21T00:17:48;3.83;;;2.35;;
64710;SDS011;51139;45.626;6.850;2023-11-21T00:20:14;4.20;;;2.28;;
64710;SDS011;51139;45.626;6.850;2023-11-21T00:22:40;3.60;;;1.83;;
64710;SDS011;51139;45.626;6.850;2023-11-21T00:25:05;2.20;;;1.45;;
64710;SDS011;51139;45.626;6.850;2023-11-21T00:27:33;1.65;;;1.00;;
64710;SDS011;51139;45.626;6.850;2023-11-21T00:30:00;1.67;;;1.17;;
64710;SDS011;51139;45.626;6.850;2023-11-21T00:32:25;26.52;;;3.22;;
64710;SDS011;51139;45.626;6.850;2023-11-21T00:34:50;2.72;;;1.95;;
64710;SDS011;51139;45.626;6.850;2023-11-21T00:37:16;2.42;;;1.52;;
64710;SDS011;51139;45.626;6.850;2023-11-21T00:39:41;7.63;;;2.40;;
64710;SDS011;51139;45.626;6.850;2023-11-21T00:42:06;1.65;;;1.10;;
64710;SDS011;51139;45.626;6.850;2023-11-21T00:44:33;0.75;;;0.60;;
64710;SDS011;51139;45.626;6.850;2023-11-21T00:46:59;0.88;;;0.80;;
64710;SDS011;51139;45.626;6.850;2023-11-21T00:49:24;1.02;;;0.80;;
64710;SDS011;51139;45.626;6.850;2023-11-21T00:51:50;1.50;;;0.90;;
64710;SDS011;51139;45.626;6.850;2023-11-21T00:54:15;1.48;;;0.60;;
64710;SDS011;51139;45.626;6.850;2023-11-21T00:56:42;0.80;;;0.40;;
64710;SDS011;51139;45.626;6.850;2023-11-21T07:53:02;6.22;;;3.10;;
64710;SDS011;51139;45.626;6.850;2023-11-21T07:55:30;4.25;;;3.20;;
64710;SDS011;51139;45.626;6.850;2023-11-21T07:57:57;3.92;;;2.10;;
64710;SDS011;51139;45.626;6.850;2023-11-21T08:00:22;4.53;;;1.92;;
64710;SDS011;51139;45.626;6.850;2023-11-21T08:02:49;480.52;;;24.73;;
64710;SDS011;51139;45.626;6.850;2023-11-21T08:05:15;658.33;;;47.25;;
64710;SDS011;51139;45.626;6.850;2023-11-21T08:07:41;801.45;;;47.72;;
64710;SDS011;51139;45.626;6.850;2023-11-21T08:10:06;273.90;;;19.20;;
64710;SDS011;51139;45.626;6.850;2023-11-21T08:37:36;17.52;;;5.72;;
64710;SDS011;51139;45.626;6.850;2023-11-21T08:40:05;7.47;;;4.10;;
64710;SDS011;51139;45.626;6.850;2023-11-21T08:42:34;6.93;;;4.30;;
64710;SDS011;51139;45.626;6.850;2023-11-21T08:45:00;5.35;;;3.25;;
64710;SDS011;51139;45.626;6.850;2023-11-21T08:47:25;5.25;;;2.97;;
64710;SDS011;51139;45.626;6.850;2023-11-21T08:49:51;6.10;;;4.30;;
64710;SDS011;51139;45.626;6.850;2023-11-21T08:52:19;3.88;;;2.55;;
64710;SDS011;51139;45.626;6.850;2023-11-21T08:54:48;4.43;;;2.35;;
64710;SDS011;51139;45.626;6.850;2023-11-21T08:57:21;4.13;;;2.92;;
64710;SDS011;51139;45.626;6.850;2023-11-21T08:59:47;5.85;;;3.80;;
64710;SDS011;51139;45.626;6.850;2023-11-21T09:02:12;1.85;;;1.65;;
64710;SDS011;51139;45.626;6.850;2023-11-21T09:04:37;2.45;;;1.80;;
64710;SDS011;51139;45.626;6.850;2023-11-21T09:07:03;2.00;;;1.20;;
64710;SDS011;51139;45.626;6.850;2023-11-21T09:09:28;441.85;;;25.27;;
64710;SDS011;51139;45.626;6.850;2023-11-21T09:11:54;15.02;;;3.53;;
64710;SDS011;51139;45.626;6.850;2023-11-21T09:14:20;5.65;;;2.45;;
64710;SDS011;51139;45.626;6.850;2023-11-21T09:16:45;3.60;;;2.03;;
64710;SDS011;51139;45.626;6.850;2023-11-21T09:19:11;4.72;;;2.00;;
64710;SDS011;51139;45.626;6.850;2023-11-21T09:21:39;2.22;;;1.73;;
64710;SDS011;51139;45.626;6.850;2023-11-21T09:24:04;3.72;;;1.80;;
64710;SDS011;51139;45.626;6.850;2023-11-21T09:26:30;4.57;;;1.88;;
64710;SDS011;51139;45.626;6.850;2023-11-21T09:28:55;3.53;;;1.70;;
64710;SDS011;51139;45.626;6.850;2023-11-21T09:31:21;2.50;;;1.73;;
64710;SDS011;51139;45.626;6.850;2023-11-21T09:33:48;2.78;;;1.70;;
64710;SDS011;51139;45.626;6.850;2023-11-21T09:36:14;3.90;;;1.88;;
64710;SDS011;51139;45.626;6.850;2023-11-21T09:38:40;5.35;;;2.55;;
64710;SDS011;51139;45.626;6.850;2023-11-21T09:41:07;3.25;;;1.90;;
64710;SDS011;51139;45.626;6.850;2023-11-21T09:43:42;4.22;;;2.38;;
64710;SDS011;51139;45.626;6.850;2023-11-21T09:46:12;70.97;;;59.70;;
64710;SDS011;51139;45.626;6.850;2023-11-21T09:48:44;10.02;;;7.03;;
64710;SDS011;51139;45.626;6.850;2023-11-21T09:51:15;41.30;;;34.95;;
64710;SDS011;51139;45.626;6.850;2023-11-21T09:53:44;22.20;;;19.23;;
64710;SDS011;51139;45.626;6.850;2023-11-21T09:56:14;7.25;;;4.90;;
64710;SDS011;51139;45.626;6.850;2023-11-21T09:58:44;5.95;;;4.10;;
64710;SDS011;51139;45.626;6.850;2023-11-21T10:01:10;6.05;;;5.00;;
64710;SDS011;51139;45.626;6.850;2023-11-21T10:03:39;4.00;;;2.78;;
64710;SDS011;51139;45.626;6.850;2023-11-21T10:06:04;3.13;;;1.30;;
64710;SDS011;51139;45.626;6.850;2023-11-21T10:08:31;3.80;;;1.50;;
64710;SDS011;51139;45.626;6.850;2023-11-21T10:10:57;2.17;;;1.38;;
64710;SDS011;51139;45.626;6.850;2023-11-21T10:13:24;2.80;;;1.45;;
64710;SDS011;51139;45.626;6.850;2023-11-21T10:15:55;4.47;;;2.17;;
64710;SDS011;51139;45.626;6.850;2023-11-21T10:18:23;3.28;;;1.17;;
64710;SDS011;51139;45.626;6.850;2023-11-21T10:20:51;1.88;;;1.23;;
64710;SDS011;51139;45.626;6.850;2023-11-21T10:23:21;2.10;;;1.15;;
64710;SDS011;51139;45.626;6.850;2023-11-21T10:25:47;4.50;;;1.33;;
64710;SDS011;51139;45.626;6.850;2023-11-21T10:28:14;1.85;;;1.00;;
64710;SDS011;51139;45.626;6.850;2023-11-21T10:30:40;2.97;;;0.93;;
64710;SDS011;51139;45.626;6.850;2023-11-21T10:33:06;2.20;;;1.35;;
64710;SDS011;51139;45.626;6.850;2023-11-21T10:35:43;3.35;;;1.60;;
64710;SDS011;51139;45.626;6.850;2023-11-21T10:38:15;2.80;;;1.60;;
64710;SDS011;51139;45.626;6.850;2023-11-21T10:40:46;3.58;;;1.60;;
64710;SDS011;51139;45.626;6.850;2023-11-21T10:43:13;5.32;;;2.22;;
64710;SDS011;51139;45.626;6.850;2023-11-21T10:45:42;5.10;;;4.70;;
64710;SDS011;51139;45.626;6.850;2023-11-21T10:48:15;2.72;;;2.00;;
64710;SDS011;51139;45.626;6.850;2023-11-21T10:50:40;2.38;;;1.30;;
64710;SDS011;51139;45.626;6.850;2023-11-21T10:53:07;2.83;;;1.55;;
64710;SDS011;51139;45.626;6.850;2023-11-21T10:55:33;3.72;;;1.52;;
64710;SDS011;51139;45.626;6.850;2023-11-21T10:58:01;5.43;;;4.88;;
64710;SDS011;51139;45.626;6.850;2023-11-21T11:00:28;5.28;;;2.97;;
64710;SDS011;51139;45.626;6.850;2023-11-21T11:02:54;6.32;;;5.10;;
64710;SDS011;51139;45.626;6.850;2023-11-21T11:05:21;7.47;;;5.35;;
64710;SDS011;51139;45.626;6.850;2023-11-21T11:07:50;4.63;;;2.20;;
64710;SDS011;51139;45.626;6.850;2023-11-21T11:10:24;5.82;;;4.00;;
64710;SDS011;51139;45.626;6.850;2023-11-21T11:12:51;3.83;;;2.25;;
64710;SDS011;51139;45.626;6.850;2023-11-21T11:15:19;23.80;;;19.20;;
64710;SDS011;51139;45.626;6.850;2023-11-21T11:17:45;18.50;;;12.98;;
64710;SDS011;51139;45.626;6.850;2023-11-21T11:20:12;85.82;;;55.60;;
64710;SDS011;51139;45.626;6.850;2023-11-21T11:28:47;2.67;;;1.40;;
64710;SDS011;51139;45.626;6.850;2023-11-21T11:34:14;31.50;;;22.35;;
64710;SDS011;51139;45.626;6.850;2023-11-21T11:36:48;77.57;;;47.35;;
64710;SDS011;51139;45.626;6.850;2023-11-21T11:39:31;4.07;;;1.63;;
64710;SDS011;51139;45.626;6.850;2023-11-21T11:42:14;4.47;;;2.20;;
64710;SDS011;51139;45.626;6.850;2023-11-21T11:47:15;7.35;;;3.67;;
64710;SDS011;51139;45.626;6.850;2023-11-21T11:55:04;4.28;;;3.20;;
64710;SDS011;51139;45.626;6.850;2023-11-21T11:57:31;8.18;;;4.20;;
64710;SDS011;51139;45.626;6.850;2023-11-21T12:02:45;3.65;;;1.80;;
64710;SDS011;51139;45.626;6.850;2023-11-21T12:05:18;4.22;;;2.70;;
